CZFN/ZFN METAR and TAF weather

Enter ICAO airport designator
Station Type Date Time Source
CZFN METAR 2018/01/24 00:00 UTC NOAA

CZFN 240000Z 23004KT 210V280 20SM -SN SCT040 BKN067 M23/M27 A3013 RMK SC4AC2 -22.7 / -24.4 / TR / SNOW CVR / MEDIUM PACK / LAST STFD OBS/NEXT 241600Z SLP218


Station Type Date Time Source
CZFN Decoded METAR 2018/01/24 00:00 UTC NOAA

Fort Norman Airport, Canada (CZFN) 64-55N 125-34W
Jan 23, 2018 - 07:00 PM EST / 2018.01.24 0000 UTC
Wind: from the SW (230 degrees) at 5 MPH (4 KT) (direction variable):0
Visibility: 20 mile(s):0
Sky conditions: mostly cloudy
Weather: light snow
Temperature: -9 F (-23 C)
Windchill: -20 F (-29 C):2
Dew Point: -16 F (-27 C)
Relative Humidity: 69%
Pressure (altimeter): 30.13 in. Hg (1020 hPa)
ob: CZFN 240000Z 23004KT 210V280 20SM -SN SCT040 BKN067 M23/M27 A3013 RMK SC4AC2 -22.7 / -24.4 / TR / SNOW CVR / MEDIUM PACK / LAST STFD OBS/NEXT 241600Z SLP218
cycle: 0

Station Type Date Time Source
CZFN TAF UTC NOAA

Error!


Example: see airport list